Time;durP1;ratioP1;P1;durP2;ratioP2;P2;SDS_P1;SDS_P2;PMS_P1;PMS_P2;Temp;Humidity;BMP_temperature;BMP_pressure;BME280_temperature;BME280_humidity;BME280_pressure;Samples;Min_cycle;Max_cycle;Signal;HPM_P1;HPM_P2
2022/07/25 00:01:49;;;;;;;6.18;3.65;;;15.20;77.70;;;;;;4989900;28;20028;-70
2022/07/25 00:04:15;;;;;;;14.27;6.22;;;15.20;77.50;;;;;;4988497;28;20132;-70
2022/07/25 00:06:42;;;;;;;12.32;6.20;;;15.10;77.40;;;;;;4989818;28;20035;-70
2022/07/25 00:09:09;;;;;;;9.15;4.60;;;15.10;77.30;;;;;;4988679;28;20026;-71
2022/07/25 00:11:36;;;;;;;11.88;4.20;;;15.10;77.10;;;;;;4988469;28;20026;-70
2022/07/25 00:14:03;;;;;;;25.85;4.85;;;15.10;77.10;;;;;;4988318;28;20018;-70
2022/07/25 00:16:29;;;;;;;12.88;4.85;;;15.10;77.00;;;;;;4988325;28;20072;-70
2022/07/25 00:18:56;;;;;;;7.05;3.30;;;15.10;77.10;;;;;;4988424;28;20038;-70
2022/07/25 00:21:22;;;;;;;7.00;3.85;;;15.10;77.00;;;;;;4988010;28;20033;-73
2022/07/25 00:23:50;;;;;;;10.30;4.28;;;15.00;76.80;;;;;;4989331;28;20046;-70
2022/07/25 00:26:16;;;;;;;5.28;2.30;;;15.00;76.70;;;;;;4988410;28;20528;-70
2022/07/25 00:28:43;;;;;;;14.50;3.75;;;15.00;76.50;;;;;;4988975;28;20034;-70
2022/07/25 00:31:10;;;;;;;5.90;3.13;;;15.00;76.50;;;;;;4989856;28;20036;-70
2022/07/25 00:33:36;;;;;;;12.10;4.45;;;15.00;76.60;;;;;;4988530;28;20049;-71
2022/07/25 00:36:03;;;;;;;6.15;3.53;;;15.00;76.60;;;;;;4988706;28;20042;-70
2022/07/25 00:38:29;;;;;;;10.18;3.65;;;15.00;76.60;;;;;;4988152;28;20377;-73
2022/07/25 00:40:56;;;;;;;9.52;3.40;;;15.00;76.50;;;;;;4989991;28;20014;-71
2022/07/25 00:43:23;;;;;;;21.95;4.25;;;15.00;76.30;;;;;;4988139;28;20018;-71
2022/07/25 00:45:50;;;;;;;8.57;3.78;;;14.90;76.30;;;;;;4988835;28;20019;-70
2022/07/25 00:48:18;;;;;;;6.32;2.75;;;14.90;76.30;;;;;;4989585;28;20023;-73
2022/07/25 00:50:45;;;;;;;10.50;3.58;;;14.90;76.30;;;;;;4988289;28;20026;-72
2022/07/25 00:53:11;;;;;;;6.35;3.22;;;14.90;76.30;;;;;;4988793;28;20031;-70
2022/07/25 00:55:38;;;;;;;6.95;2.95;;;14.90;76.50;;;;;;4987278;28;20035;-70
2022/07/25 00:58:04;;;;;;;15.35;4.88;;;14.90;76.60;;;;;;4989187;28;20058;-70
2022/07/25 01:00:31;;;;;;;5.28;2.55;;;14.90;76.70;;;;;;4986431;28;20389;-72
2022/07/25 01:02:57;;;;;;;6.97;2.60;;;14.90;76.70;;;;;;4988540;28;20038;-73
2022/07/25 01:05:24;;;;;;;4.97;2.60;;;14.90;76.90;;;;;;4989241;28;20541;-73
2022/07/25 01:07:52;;;;;;;5.85;2.30;;;14.90;77.00;;;;;;4987891;28;20033;-71
2022/07/25 01:10:18;;;;;;;7.03;2.47;;;14.90;77.00;;;;;;4987300;28;20641;-71
2022/07/25 01:12:48;;;;;;;5.22;2.50;;;14.90;77.10;;;;;;4988112;28;20027;-71
2022/07/25 01:15:17;;;;;;;6.13;2.50;;;14.90;77.20;;;;;;4988974;28;20082;-71
2022/07/25 01:17:43;;;;;;;5.03;2.15;;;14.90;77.30;;;;;;4987649;28;20018;-71
2022/07/25 01:20:15;;;;;;;13.07;3.67;;;14.90;77.20;;;;;;4990924;28;20033;-71
2022/07/25 01:22:41;;;;;;;5.90;2.22;;;14.90;77.40;;;;;;4992492;28;20172;-70
2022/07/25 01:25:09;;;;;;;6.13;1.75;;;14.90;77.50;;;;;;4991475;28;20030;-71
2022/07/25 01:27:35;;;;;;;14.80;3.13;;;14.90;77.40;;;;;;4991563;28;20042;-70
2022/07/25 01:30:04;;;;;;;9.25;2.30;;;14.90;77.90;;;;;;4991465;28;20031;-70
2022/07/25 01:32:30;;;;;;;6.53;2.05;;;14.90;77.90;;;;;;4991423;28;20022;-71
2022/07/25 01:34:57;;;;;;;4.45;2.50;;;14.90;77.80;;;;;;4991169;28;20539;-74
2022/07/25 01:37:23;;;;;;;11.70;2.33;;;14.80;77.60;;;;;;4991596;28;20030;-70
2022/07/25 01:39:50;;;;;;;8.93;2.65;;;14.90;77.70;;;;;;4992005;28;20478;-71
2022/07/25 01:42:17;;;;;;;5.25;2.30;;;14.90;77.80;;;;;;4990448;28;20128;-71
2022/07/25 01:44:43;;;;;;;7.00;2.58;;;14.90;78.30;;;;;;4992727;28;20062;-72
2022/07/25 01:47:10;;;;;;;12.32;4.03;;;14.90;78.50;;;;;;4990939;28;20386;-70
2022/07/25 01:49:36;;;;;;;8.52;3.00;;;14.90;78.60;;;;;;4991539;28;20029;-73
2022/07/25 01:52:03;;;;;;;4.70;1.83;;;14.90;78.10;;;;;;4991065;28;20037;-72
2022/07/25 01:54:30;;;;;;;5.47;1.73;;;14.90;77.70;;;;;;4992184;28;20192;-71
2022/07/25 01:56:57;;;;;;;7.10;2.50;;;14.90;77.60;;;;;;4990687;28;20023;-72
2022/07/25 01:59:24;;;;;;;3.92;2.03;;;14.90;77.40;;;;;;4991703;28;20033;-73
2022/07/25 02:01:50;;;;;;;5.88;2.03;;;14.80;77.20;;;;;;4991613;28;20042;-74
2022/07/25 02:04:17;;;;;;;3.88;1.95;;;14.80;77.00;;;;;;4990772;28;20081;-73
2022/07/25 02:06:43;;;;;;;5.75;2.80;;;14.80;76.90;;;;;;4991483;28;20434;-71
2022/07/25 02:09:10;;;;;;;3.17;2.15;;;14.80;76.70;;;;;;4990371;28;20465;-72
2022/07/25 02:11:36;;;;;;;5.47;2.60;;;14.80;76.70;;;;;;4991593;28;20037;-71
2022/07/25 02:14:03;;;;;;;9.70;2.55;;;14.80;76.70;;;;;;4990726;28;20023;-72
2022/07/25 02:16:30;;;;;;;5.50;1.85;;;14.80;76.80;;;;;;4992075;28;20073;-73
2022/07/25 02:18:56;;;;;;;22.63;3.88;;;14.70;76.70;;;;;;4991477;28;20485;-71
2022/07/25 02:21:23;;;;;;;5.97;2.38;;;14.70;76.70;;;;;;4988439;28;20109;-73
2022/07/25 02:23:49;;;;;;;6.78;2.03;;;14.80;76.70;;;;;;4992009;28;20122;-72
2022/07/25 02:26:16;;;;;;;5.40;2.10;;;14.80;76.70;;;;;;4989937;28;20509;-73
2022/07/25 02:28:42;;;;;;;8.30;2.10;;;14.80;76.70;;;;;;4991367;28;20040;-70
2022/07/25 02:31:10;;;;;;;4.50;1.80;;;14.70;76.60;;;;;;4988697;28;20393;-71
2022/07/25 02:33:36;;;;;;;2.67;1.30;;;14.80;76.70;;;;;;4992170;28;20102;-71
2022/07/25 02:36:03;;;;;;;4.88;1.38;;;14.80;76.70;;;;;;4990624;28;20413;-70
2022/07/25 02:38:30;;;;;;;7.38;1.77;;;14.80;76.60;;;;;;4990455;28;20031;-71
2022/07/25 02:40:56;;;;;;;13.48;2.20;;;14.70;76.60;;;;;;4991665;28;20519;-72
2022/07/25 02:43:23;;;;;;;7.55;1.65;;;14.70;77.00;;;;;;4990213;28;20395;-72
2022/07/25 02:45:49;;;;;;;7.95;1.40;;;14.70;76.90;;;;;;4990896;28;20512;-73
2022/07/25 02:48:16;;;;;;;4.10;1.33;;;14.80;76.70;;;;;;4989969;28;20018;-70
2022/07/25 02:50:42;;;;;;;5.68;2.17;;;14.80;76.50;;;;;;4991188;28;20038;-72
2022/07/25 02:53:09;;;;;;;4.25;1.50;;;14.80;76.30;;;;;;4989575;28;20069;-72
2022/07/25 02:55:35;;;;;;;2.70;1.50;;;14.70;76.10;;;;;;4990810;28;20758;-70
2022/07/25 02:58:02;;;;;;;4.35;1.75;;;14.70;76.00;;;;;;4990462;28;20117;-71
2022/07/25 03:00:29;;;;;;;6.60;2.10;;;14.80;75.70;;;;;;4990304;28;20024;-73
2022/07/25 03:02:57;;;;;;;5.20;2.15;;;14.80;75.60;;;;;;4990356;28;20023;-73
2022/07/25 03:05:23;;;;;;;12.25;3.17;;;14.70;75.70;;;;;;4989091;28;20049;-71
2022/07/25 03:07:50;;;;;;;5.40;1.67;;;14.70;76.10;;;;;;4990822;28;20117;-73
2022/07/25 03:10:16;;;;;;;6.28;2.00;;;14.70;75.80;;;;;;4989127;28;20018;-74
2022/07/25 03:12:44;;;;;;;5.50;2.15;;;14.70;75.50;;;;;;4990677;28;20347;-71
2022/07/25 03:15:12;;;;;;;3.97;1.70;;;14.70;75.90;;;;;;4989116;28;20041;-73
2022/07/25 03:17:39;;;;;;;9.18;2.40;;;14.70;75.80;;;;;;4987999;28;20042;-73
2022/07/25 03:20:07;;;;;;;5.82;2.15;;;14.60;75.60;;;;;;4990153;28;20105;-70
2022/07/25 03:22:35;;;;;;;8.98;3.30;;;14.60;75.60;;;;;;4988724;28;20050;-71
2022/07/25 03:25:01;;;;;;;14.00;2.53;;;14.60;75.60;;;;;;4990187;28;20026;-72
2022/07/25 03:27:28;;;;;;;13.88;2.88;;;14.60;75.70;;;;;;4988974;28;20030;-70
2022/07/25 03:29:54;;;;;;;13.68;3.55;;;14.60;75.80;;;;;;4990863;28;20568;-71
2022/07/25 03:32:22;;;;;;;24.60;18.38;;;14.50;75.70;;;;;;4988731;28;20062;-72
2022/07/25 03:34:48;;;;;;;37.80;20.42;;;14.50;76.40;;;;;;4988077;28;20125;-70
2022/07/25 03:37:15;;;;;;;23.70;12.65;;;14.50;77.10;;;;;;4989954;28;20026;-71
2022/07/25 03:39:41;;;;;;;12.82;8.57;;;14.50;75.80;;;;;;4988961;28;20070;-71
2022/07/25 03:42:07;;;;;;;21.30;6.57;;;14.50;75.40;;;;;;4989373;28;20419;-72
2022/07/25 03:44:36;;;;;;;11.95;5.47;;;14.50;76.00;;;;;;4988518;28;20019;-72
2022/07/25 03:47:04;;;;;;;15.73;4.65;;;14.50;75.40;;;;;;4989619;28;20018;-71
2022/07/25 03:49:30;;;;;;;7.55;4.25;;;14.40;75.50;;;;;;4987062;28;20144;-70
2022/07/25 03:51:57;;;;;;;13.32;4.22;;;14.40;75.50;;;;;;4989231;28;20497;-70
2022/07/25 03:54:24;;;;;;;11.30;4.07;;;14.40;75.50;;;;;;4989593;28;20405;-71
2022/07/25 03:56:51;;;;;;;6.10;4.05;;;14.40;75.40;;;;;;4988392;28;20064;-71
2022/07/25 03:59:20;;;;;;;13.45;3.60;;;14.40;75.40;;;;;;4988954;28;20045;-69
2022/07/25 04:01:48;;;;;;;11.38;3.85;;;14.40;75.30;;;;;;4987481;28;20022;-71
2022/07/25 04:04:16;;;;;;;13.27;5.05;;;14.40;75.10;;;;;;4989951;28;20512;-72
2022/07/25 04:06:42;;;;;;;7.75;3.92;;;14.40;75.00;;;;;;4988367;28;20034;-71
2022/07/25 04:09:10;;;;;;;17.48;10.85;;;14.40;75.10;;;;;;4987434;28;20030;-70
2022/07/25 04:11:37;;;;;;;38.22;28.02;;;14.30;75.70;;;;;;4989968;28;20049;-71
2022/07/25 04:14:04;;;;;;;29.17;19.35;;;14.30;75.60;;;;;;4989841;28;20121;-74
2022/07/25 04:16:31;;;;;;;14.48;10.60;;;14.30;75.60;;;;;;4988456;28;20401;-75
2022/07/25 04:18:58;;;;;;;12.77;6.88;;;14.30;75.40;;;;;;4987898;28;20026;-74
2022/07/25 04:21:26;;;;;;;7.75;3.83;;;14.30;75.30;;;;;;4989942;28;20379;-75
2022/07/25 04:23:52;;;;;;;11.75;4.53;;;14.30;75.10;;;;;;4988036;28;20042;-73
2022/07/25 04:26:19;;;;;;;12.43;4.10;;;14.30;74.90;;;;;;4988553;28;20037;-73
2022/07/25 04:28:46;;;;;;;6.40;3.58;;;14.30;74.80;;;;;;4988199;28;20033;-75
2022/07/25 04:31:12;;;;;;;4.80;3.47;;;14.30;74.80;;;;;;4988854;28;20073;-73
2022/07/25 04:33:40;;;;;;;7.32;3.45;;;14.20;74.70;;;;;;4988728;28;20034;-74
2022/07/25 04:36:06;;;;;;;17.38;4.00;;;14.20;74.70;;;;;;4987108;28;20030;-72
2022/07/25 04:38:33;;;;;;;14.45;4.20;;;14.20;74.80;;;;;;4988245;28;20018;-72
2022/07/25 04:41:02;;;;;;;14.85;4.32;;;14.20;75.40;;;;;;4988496;28;20474;-70
2022/07/25 04:43:28;;;;;;;16.77;4.50;;;14.20;75.30;;;;;;4988694;28;20081;-75
2022/07/25 04:45:55;;;;;;;19.77;4.32;;;14.10;75.40;;;;;;4988362;28;20026;-76
2022/07/25 04:48:21;;;;;;;9.48;3.90;;;14.10;75.90;;;;;;4988756;28;20014;-74
2022/07/25 04:50:48;;;;;;;12.15;4.28;;;14.10;76.00;;;;;;4988529;28;20034;-74
2022/07/25 04:53:14;;;;;;;9.35;3.58;;;14.00;75.90;;;;;;4986409;28;20084;-72
2022/07/25 04:55:41;;;;;;;11.50;3.40;;;14.10;75.60;;;;;;4992081;28;20038;-72
2022/07/25 04:58:16;;;;;;;6.05;3.78;;;14.00;75.40;;;;;;4991245;28;20993;-72
2022/07/25 05:00:53;;;;;;;10.30;4.60;;;14.10;75.30;;;;;;5023433;28;20374;-72
2022/07/25 05:03:19;;;;;;;4.57;3.17;;;14.00;75.30;;;;;;4991390;28;20445;-71
2022/07/25 05:05:46;;;;;;;11.50;3.95;;;14.00;75.10;;;;;;4992077;28;20029;-72
2022/07/25 05:08:12;;;;;;;6.88;2.85;;;14.00;75.00;;;;;;4992976;28;20022;-72
2022/07/25 05:10:39;;;;;;;5.40;3.17;;;14.00;75.00;;;;;;4991495;28;20038;-72
2022/07/25 05:13:05;;;;;;;6.82;3.30;;;14.00;74.80;;;;;;4993047;28;20120;-72
2022/07/25 05:15:32;;;;;;;7.80;2.50;;;14.00;74.50;;;;;;4991087;28;20068;-72
2022/07/25 05:17:58;;;;;;;7.68;2.50;;;14.00;74.40;;;;;;4993479;28;20026;-72
2022/07/25 05:20:25;;;;;;;12.80;2.47;;;14.00;74.60;;;;;;4991800;28;20038;-72
2022/07/25 05:22:51;;;;;;;9.70;2.92;;;14.00;74.90;;;;;;4990868;28;20042;-72
2022/07/25 05:25:18;;;;;;;18.00;2.25;;;13.90;75.10;;;;;;4992514;28;20413;-72
2022/07/25 05:27:45;;;;;;;7.90;2.47;;;13.90;74.50;;;;;;4991926;28;20393;-72
2022/07/25 05:30:13;;;;;;;2.88;1.38;;;13.90;74.60;;;;;;4993366;28;20522;-72
2022/07/25 05:32:40;;;;;;;4.78;1.88;;;13.90;74.10;;;;;;4989440;28;20030;-72
2022/07/25 05:35:08;;;;;;;3.92;1.67;;;13.90;73.80;;;;;;4992964;28;20048;-72
2022/07/25 05:37:36;;;;;;;9.25;1.70;;;13.90;73.30;;;;;;4991331;28;20125;-72
2022/07/25 05:40:04;;;;;;;4.45;1.17;;;13.90;73.00;;;;;;4988478;28;20030;-72
2022/07/25 05:42:30;;;;;;;5.97;1.65;;;14.00;72.80;;;;;;4990900;28;20022;-72
2022/07/25 05:44:57;;;;;;;3.67;2.08;;;13.90;72.60;;;;;;4990978;28;20034;-72
2022/07/25 05:47:23;;;;;;;3.17;1.80;;;14.00;72.50;;;;;;4992931;28;20023;-72
2022/07/25 05:49:50;;;;;;;4.15;1.80;;;13.90;72.40;;;;;;4990493;28;20025;-71
2022/07/25 05:52:16;;;;;;;3.28;1.40;;;13.90;72.40;;;;;;4991101;28;20054;-72
2022/07/25 05:54:43;;;;;;;3.10;1.60;;;13.90;72.40;;;;;;4991719;28;20134;-71
2022/07/25 05:57:09;;;;;;;3.50;2.05;;;13.90;72.20;;;;;;4992529;28;20027;-72
2022/07/25 05:59:36;;;;;;;3.50;1.95;;;13.90;72.40;;;;;;4990203;28;20481;-72
2022/07/25 06:02:02;;;;;;;5.80;2.03;;;13.90;72.40;;;;;;4991342;28;20018;-71
2022/07/25 06:04:29;;;;;;;4.18;2.17;;;13.80;72.40;;;;;;4992247;28;20105;-72
2022/07/25 06:06:56;;;;;;;2.72;1.83;;;13.80;72.40;;;;;;4989811;28;20030;-71
2022/07/25 06:09:23;;;;;;;9.50;3.42;;;13.80;72.40;;;;;;4991341;28;20498;-72
2022/07/25 06:11:50;;;;;;;9.02;2.97;;;13.80;72.30;;;;;;4990726;28;20065;-72
2022/07/25 06:14:17;;;;;;;8.65;3.55;;;13.80;72.20;;;;;;4991091;28;20382;-72
2022/07/25 06:16:43;;;;;;;3.30;2.25;;;13.80;72.20;;;;;;4991018;28;20081;-72
2022/07/25 06:19:09;;;;;;;4.88;2.75;;;13.80;72.20;;;;;;4991065;28;20015;-72
2022/07/25 06:21:36;;;;;;;5.88;3.13;;;13.80;72.40;;;;;;4990796;28;20073;-72
2022/07/25 06:24:03;;;;;;;8.00;2.25;;;13.80;72.40;;;;;;4991370;28;20113;-72
2022/07/25 06:26:30;;;;;;;4.72;2.45;;;13.80;72.40;;;;;;4990555;28;20025;-71
2022/07/25 06:28:56;;;;;;;6.68;2.60;;;13.80;72.60;;;;;;4988720;28;20081;-72
2022/07/25 06:31:23;;;;;;;6.25;2.78;;;13.80;72.80;;;;;;4991078;28;20054;-72
2022/07/25 06:33:51;;;;;;;17.90;3.38;;;13.80;73.00;;;;;;4990036;28;20368;-72
2022/07/25 06:36:18;;;;;;;15.57;3.60;;;13.80;73.00;;;;;;4990812;28;20042;-72
2022/07/25 06:38:44;;;;;;;10.32;3.30;;;13.80;73.40;;;;;;4990985;28;20026;-72
2022/07/25 06:41:14;;;;;;;7.22;4.20;;;13.80;73.50;;;;;;4990832;28;20023;-72
2022/07/25 06:43:41;;;;;;;11.80;5.03;;;13.80;73.50;;;;;;4991718;28;20053;-72
2022/07/25 06:46:07;;;;;;;8.63;5.40;;;13.80;73.70;;;;;;4990008;28;20027;-72
2022/07/25 06:48:33;;;;;;;9.18;6.00;;;13.80;73.80;;;;;;4990949;28;20019;-72
2022/07/25 06:51:00;;;;;;;11.27;5.32;;;13.80;74.00;;;;;;4990022;28;20026;-72
2022/07/25 06:53:27;;;;;;;6.35;4.80;;;13.80;74.10;;;;;;4990377;28;20446;-72
2022/07/25 06:55:53;;;;;;;7.55;4.47;;;13.80;74.20;;;;;;4990828;28;20714;-72
2022/07/25 06:58:20;;;;;;;5.72;3.60;;;13.80;74.10;;;;;;4990614;28;20026;-72
2022/07/25 07:00:46;;;;;;;7.18;4.70;;;13.90;74.10;;;;;;4991313;28;20018;-72
2022/07/25 07:03:13;;;;;;;5.55;4.22;;;13.90;74.20;;;;;;4989096;28;20113;-72
2022/07/25 07:05:40;;;;;;;6.25;3.53;;;13.90;74.20;;;;;;4991217;28;20762;-72
2022/07/25 07:08:07;;;;;;;7.47;3.58;;;13.90;74.30;;;;;;4989767;28;20064;-72
2022/07/25 07:10:34;;;;;;;7.60;4.00;;;13.90;74.40;;;;;;4991366;28;20977;-72
2022/07/25 07:13:14;;;;;;;9.50;3.97;;;13.90;74.60;;;;;;4989972;28;20034;-72
2022/07/25 07:15:46;;;;;;;7.15;3.30;;;13.90;74.60;;;;;;4989700;28;20026;-73
2022/07/25 07:18:13;;;;;;;4.85;2.97;;;13.90;74.60;;;;;;4990129;28;20035;-72
2022/07/25 07:20:40;;;;;;;5.95;4.03;;;14.00;74.60;;;;;;4988938;28;20029;-72
2022/07/25 07:23:06;;;;;;;5.47;3.22;;;14.00;74.70;;;;;;4990562;28;20054;-71
2022/07/25 07:25:33;;;;;;;2.78;2.50;;;14.00;74.70;;;;;;4988553;28;20033;-72
2022/07/25 07:27:59;;;;;;;12.57;2.58;;;14.00;74.80;;;;;;4989855;28;20072;-72
2022/07/25 07:30:26;;;;;;;7.47;3.08;;;14.00;75.00;;;;;;4988626;28;20097;-72
2022/07/25 07:32:52;;;;;;;4.15;3.03;;;14.00;75.10;;;;;;4989291;28;20022;-72
2022/07/25 07:35:19;;;;;;;4.95;3.40;;;14.10;75.80;;;;;;4990049;28;20087;-73
2022/07/25 07:37:46;;;;;;;5.82;2.20;;;14.10;75.10;;;;;;4988738;28;20014;-75
2022/07/25 07:40:14;;;;;;;2.92;2.30;;;14.10;75.10;;;;;;4990952;28;20033;-72
2022/07/25 07:42:48;;;;;;;5.40;3.35;;;14.10;75.10;;;;;;4989056;28;20386;-72
2022/07/25 07:45:19;;;;;;;4.85;2.78;;;14.20;75.80;;;;;;4989594;28;20041;-72
2022/07/25 07:47:47;;;;;;;7.05;3.70;;;14.20;75.20;;;;;;4989963;28;20518;-72
2022/07/25 07:50:19;;;;;;;9.10;2.88;;;14.20;75.20;;;;;;4989767;28;20057;-72
2022/07/25 07:52:46;;;;;;;4.80;3.08;;;14.20;75.10;;;;;;4989985;28;20026;-72
2022/07/25 07:58:00;;;;;;;7.10;4.37;;;14.30;75.10;;;;;;4987482;28;20504;-73
2022/07/25 08:00:29;;;;;;;6.90;3.67;;;14.40;75.10;;;;;;4988236;28;20371;-72
2022/07/25 08:02:57;;;;;;;11.45;4.18;;;14.40;75.00;;;;;;4989757;28;20033;-73
2022/07/25 08:05:26;;;;;;;7.13;5.03;;;14.40;75.10;;;;;;4981886;28;20046;-73
2022/07/25 08:07:54;;;;;;;8.88;3.97;;;14.40;75.10;;;;;;4989050;28;20029;-72
2022/07/25 08:10:27;;;;;;;6.28;3.40;;;14.50;75.20;;;;;;4989163;28;20030;-73
2022/07/25 08:12:53;;;;;;;6.07;3.95;;;14.50;75.00;;;;;;4988715;28;20022;-73
2022/07/25 08:15:21;;;;;;;7.90;4.68;;;14.50;74.90;;;;;;4987669;28;20046;-73
2022/07/25 08:17:49;;;;;;;9.55;5.20;;;14.60;75.10;;;;;;4988145;28;20088;-73
2022/07/25 08:20:17;;;;;;;9.48;4.38;;;14.60;75.00;;;;;;4990117;28;20393;-73
2022/07/25 08:22:46;;;;;;;15.95;4.72;;;14.60;74.90;;;;;;4988990;28;20042;-73
2022/07/25 08:25:18;;;;;;;9.07;4.53;;;14.70;75.30;;;;;;4989165;28;20022;-73
2022/07/25 08:27:45;;;;;;;18.60;5.50;;;14.80;75.50;;;;;;4989663;28;20406;-73
2022/07/25 08:30:13;;;;;;;13.23;5.22;;;14.80;75.50;;;;;;4988425;28;20041;-73
2022/07/25 08:32:51;;;;;;;9.77;4.70;;;14.80;75.50;;;;;;4989736;28;20078;-73
2022/07/25 08:35:19;;;;;;;9.77;4.53;;;14.90;75.70;;;;;;4988948;28;20041;-73
2022/07/25 08:37:47;;;;;;;13.68;4.72;;;14.90;75.60;;;;;;4988313;28;20018;-73
2022/07/25 08:40:14;;;;;;;9.93;4.10;;;15.00;75.50;;;;;;4985367;28;20018;-73
2022/07/25 08:42:41;;;;;;;9.75;4.18;;;15.00;75.30;;;;;;4988631;28;20030;-73
2022/07/25 08:45:12;;;;;;;7.78;4.45;;;15.10;75.10;;;;;;4989581;28;20557;-73
2022/07/25 08:47:40;;;;;;;13.27;6.05;;;15.10;74.80;;;;;;4988242;28;20027;-73
2022/07/25 08:50:10;;;;;;;10.30;4.43;;;15.10;74.20;;;;;;4988141;28;20030;-73
2022/07/25 08:52:37;;;;;;;7.57;4.35;;;15.20;73.80;;;;;;4988149;28;20101;-73
2022/07/25 08:55:09;;;;;;;11.25;4.45;;;15.20;73.00;;;;;;4988674;28;20886;-73
2022/07/25 08:57:40;;;;;;;9.55;4.60;;;15.30;72.80;;;;;;4988529;28;20042;-73
2022/07/25 09:00:07;;;;;;;8.85;3.70;;;15.40;72.80;;;;;;4987948;28;20018;-73
2022/07/25 09:02:34;;;;;;;10.13;3.65;;;15.40;72.60;;;;;;4989306;28;20335;-73
2022/07/25 09:05:00;;;;;;;7.65;3.67;;;15.50;72.10;;;;;;4986642;28;20508;-74
2022/07/25 09:07:36;;;;;;;7.80;3.05;;;15.50;71.70;;;;;;4987884;28;20033;-73
2022/07/25 09:10:12;;;;;;;4.57;2.90;;;15.60;71.10;;;;;;4992099;28;20027;-73
2022/07/25 09:12:39;;;;;;;5.40;3.60;;;15.70;69.90;;;;;;4984385;28;20469;-73
2022/07/25 09:15:07;;;;;;;6.53;3.35;;;15.70;69.20;;;;;;4988318;28;20039;-73
2022/07/25 09:17:36;;;;;;;10.32;3.92;;;15.80;68.30;;;;;;4988234;28;20010;-74
2022/07/25 09:20:05;;;;;;;8.95;3.92;;;15.90;68.40;;;;;;4988844;28;20386;-73
2022/07/25 09:22:43;;;;;;;12.35;3.45;;;15.90;67.00;;;;;;4986644;28;20042;-73
2022/07/25 09:25:24;;;;;;;7.85;3.85;;;15.90;66.70;;;;;;4988673;28;20026;-73
2022/07/25 09:27:50;;;;;;;13.57;5.15;;;16.00;66.60;;;;;;4988195;28;20617;-74
2022/07/25 09:30:17;;;;;;;11.73;4.32;;;16.10;65.90;;;;;;4987966;28;20482;-74
2022/07/25 09:32:44;;;;;;;11.80;3.88;;;16.10;65.90;;;;;;4988310;28;20022;-73
2022/07/25 09:35:11;;;;;;;7.43;4.10;;;16.20;65.40;;;;;;4987605;28;20655;-73
2022/07/25 09:37:38;;;;;;;5.18;3.20;;;16.30;64.70;;;;;;4988920;28;20026;-74
2022/07/25 09:40:14;;;;;;;5.00;3.08;;;16.30;63.70;;;;;;4987394;28;20312;-73
2022/07/25 09:42:44;;;;;;;8.00;3.65;;;16.40;64.10;;;;;;4992438;28;20117;-74
2022/07/25 09:45:13;;;;;;;7.72;3.40;;;16.50;64.30;;;;;;4992884;28;20033;-73
2022/07/25 09:47:57;;;;;;;8.63;4.30;;;16.50;64.50;;;;;;4991734;28;20151;-73
2022/07/25 09:50:25;;;;;;;14.77;3.45;;;16.60;64.40;;;;;;4991161;28;20023;-72
2022/07/25 09:52:55;;;;;;;8.00;2.78;;;16.70;64.00;;;;;;4991490;28;20025;-72
2022/07/25 09:55:22;;;;;;;5.88;2.72;;;16.80;63.80;;;;;;4991121;28;20053;-72
2022/07/25 09:57:51;;;;;;;6.65;3.53;;;16.90;63.90;;;;;;4991029;28;20157;-72
2022/07/25 10:00:26;;;;;;;6.43;2.80;;;17.00;63.50;;;;;;4990002;28;20027;-72
2022/07/25 10:03:05;;;;;;;5.78;2.85;;;17.10;63.20;;;;;;4992596;28;20062;-73
2022/07/25 10:05:48;;;;;;;3.55;1.90;;;17.10;63.00;;;;;;4991761;28;20026;-73
2022/07/25 10:08:15;;;;;;;5.03;1.63;;;17.30;61.20;;;;;;4992196;28;20085;-74
2022/07/25 10:10:42;;;;;;;8.32;2.30;;;17.30;60.90;;;;;;4992510;28;20053;-74
2022/07/25 10:13:15;;;;;;;5.88;1.80;;;17.40;59.60;;;;;;4980614;28;20027;-74
2022/07/25 10:15:45;;;;;;;7.20;2.72;;;17.50;59.20;;;;;;4989423;28;20113;-74
2022/07/25 10:18:12;;;;;;;5.03;2.03;;;17.50;58.50;;;;;;4991133;28;20033;-74
2022/07/25 10:20:38;;;;;;;3.35;1.98;;;17.50;58.70;;;;;;4991687;28;20090;-74
2022/07/25 10:23:23;;;;;;;7.25;1.40;;;17.60;59.30;;;;;;4990295;28;20073;-73
2022/07/25 10:26:09;;;;;;;2.00;0.57;;;17.70;59.20;;;;;;4992377;28;20026;-73
2022/07/25 10:28:39;;;;;;;2.35;0.95;;;17.80;57.00;;;;;;4992362;28;20035;-74
2022/07/25 10:31:33;;;;;;;2.25;1.50;;;17.90;57.50;;;;;;4990528;28;20022;-73
2022/07/25 10:34:03;;;;;;;4.18;1.90;;;18.00;57.40;;;;;;4989870;28;20028;-73
2022/07/25 10:36:41;;;;;;;2.15;1.38;;;18.10;56.50;;;;;;4989328;28;20466;-74
2022/07/25 10:39:10;;;;;;;2.15;1.92;;;18.20;56.50;;;;;;4989950;28;20018;-73
2022/07/25 10:41:42;;;;;;;4.03;1.65;;;18.20;56.10;;;;;;4990634;28;20101;-74
2022/07/25 10:44:13;;;;;;;5.20;1.65;;;18.30;55.80;;;;;;4989839;28;20030;-73
2022/07/25 10:46:42;;;;;;;1.38;0.90;;;18.30;55.90;;;;;;4986531;28;20034;-74
2022/07/25 10:49:19;;;;;;;3.53;0.98;;;18.40;54.90;;;;;;4990272;28;20482;-74
2022/07/25 10:52:03;;;;;;;0.73;0.50;;;18.50;54.50;;;;;;4988995;28;20482;-74
2022/07/25 10:54:38;;;;;;;1.60;1.13;;;18.50;54.60;;;;;;4990856;28;20031;-74
2022/07/25 10:57:13;;;;;;;2.03;0.50;;;18.60;53.30;;;;;;4988213;28;20030;-73
2022/07/25 10:59:41;;;;;;;1.08;0.52;;;18.60;51.90;;;;;;4991383;28;20058;-74
2022/07/25 11:02:16;;;;;;;0.85;0.40;;;18.70;51.00;;;;;;4989647;28;20556;-74
2022/07/25 11:04:56;;;;;;;;;;;18.80;50.50;;;;;;4991813;28;20077;-74
2022/07/25 11:07:23;;;;;;;4.93;0.60;;;18.90;50.40;;;;;;4990182;28;19910;-74
2022/07/25 11:09:58;;;;;;;1.42;0.50;;;19.00;50.90;;;;;;4986081;28;20109;-74
2022/07/25 11:12:25;;;;;;;0.82;0.43;;;19.00;50.80;;;;;;4989859;28;20030;-74
2022/07/25 11:14:59;;;;;;;2.28;0.60;;;19.10;49.70;;;;;;4989287;28;20042;-74
2022/07/25 11:17:28;;;;;;;1.47;0.77;;;19.10;49.50;;;;;;4990786;28;20429;-74
2022/07/25 11:20:09;;;;;;;1.80;0.45;;;19.20;47.90;;;;;;4990455;28;20058;-74
2022/07/25 11:22:35;;;;;;;0.43;0.43;;;19.30;47.60;;;;;;4990079;28;20572;-74
2022/07/25 11:25:16;;;;;;;2.70;0.50;;;19.30;47.30;;;;;;4991039;28;20482;-74
2022/07/25 11:27:43;;;;;;;0.47;0.30;;;19.40;47.70;;;;;;4989513;28;20014;-73
2022/07/25 11:30:18;;;;;;;2.53;1.27;;;19.50;47.50;;;;;;4990765;28;20030;-74
2022/07/25 11:32:46;;;;;;;3.50;1.02;;;19.60;47.50;;;;;;4988726;28;20022;-74
2022/07/25 11:35:14;;;;;;;1.10;0.45;;;19.60;45.80;;;;;;4990202;28;20031;-74
2022/07/25 11:37:42;;;;;;;0.50;0.30;;;19.60;45.70;;;;;;4989532;28;20022;-74
2022/07/25 11:40:09;;;;;;;1.15;0.50;;;19.70;46.20;;;;;;4990250;28;20081;-74
2022/07/25 11:42:47;;;;;;;0.20;0.20;;;19.70;45.30;;;;;;4990520;28;20390;-74
2022/07/25 11:45:23;;;;;;;4.80;0.50;;;19.80;45.00;;;;;;4989082;28;20038;-73
2022/07/25 11:48:11;;;;;;;1.83;0.70;;;19.90;45.60;;;;;;4989915;28;20030;-73
2022/07/25 11:50:40;;;;;;;2.20;0.52;;;19.90;45.60;;;;;;4989761;28;20054;-74
2022/07/25 11:53:10;;;;;;;1.00;0.32;;;20.00;45.80;;;;;;4987674;28;20026;-74
2022/07/25 11:55:43;;;;;;;0.85;0.55;;;20.00;46.10;;;;;;4989772;28;20038;-74
2022/07/25 11:58:12;;;;;;;2.53;0.52;;;20.10;45.80;;;;;;4987549;28;20026;-74
2022/07/25 12:00:44;;;;;;;5.05;0.70;;;20.10;45.70;;;;;;4988600;28;20022;-74
2022/07/25 12:03:21;;;;;;;4.13;0.90;;;20.20;45.90;;;;;;4987482;28;20493;-74
2022/07/25 12:06:05;;;;;;;2.65;0.80;;;20.30;46.40;;;;;;4988415;28;20386;-73
2022/07/25 12:08:38;;;;;;;0.60;0.50;;;20.30;46.70;;;;;;4987460;28;20096;-74
2022/07/25 12:11:15;;;;;;;0.85;0.50;;;20.40;46.40;;;;;;4986338;28;20022;-74
2022/07/25 12:13:45;;;;;;;0.70;0.50;;;20.40;45.90;;;;;;4988571;28;20619;-75
2022/07/25 12:16:17;;;;;;;2.47;0.70;;;20.40;45.50;;;;;;4984432;28;20045;-74
2022/07/25 12:18:44;;;;;;;0.80;0.75;;;20.50;46.00;;;;;;4987260;28;20098;-74
2022/07/25 12:21:11;;;;;;;1.58;0.93;;;20.50;45.80;;;;;;4987670;28;20022;-74
2022/07/25 12:23:40;;;;;;;3.80;1.40;;;20.60;45.80;;;;;;4987236;28;20077;-74
2022/07/25 12:26:07;;;;;;;1.63;0.70;;;20.70;45.60;;;;;;4985992;28;20046;-74
2022/07/25 12:28:34;;;;;;;1.77;0.77;;;20.70;45.70;;;;;;4987205;28;20113;-74
2022/07/25 12:31:01;;;;;;;1.52;0.77;;;20.70;45.50;;;;;;4988036;28;20170;-75
2022/07/25 12:33:31;;;;;;;2.53;1.08;;;20.80;45.90;;;;;;4985422;28;20022;-75
2022/07/25 12:35:59;;;;;;;1.33;0.77;;;20.80;45.60;;;;;;4983997;28;20505;-74
2022/07/25 12:38:25;;;;;;;1.23;0.70;;;20.90;45.60;;;;;;4986167;28;20030;-74
2022/07/25 12:40:52;;;;;;;1.75;0.90;;;20.90;45.50;;;;;;4987532;28;20021;-74
2022/07/25 12:43:19;;;;;;;1.67;1.05;;;20.90;45.60;;;;;;4984994;28;20026;-74
2022/07/25 12:45:47;;;;;;;1.10;1.00;;;21.00;45.80;;;;;;4986517;28;20034;-75
2022/07/25 12:48:14;;;;;;;1.50;0.70;;;21.00;45.50;;;;;;4984537;28;20030;-74
2022/07/25 12:50:41;;;;;;;0.77;0.65;;;21.10;45.40;;;;;;4987050;28;20066;-74
2022/07/25 12:53:08;;;;;;;1.33;0.60;;;21.10;45.40;;;;;;4987684;28;20409;-76
2022/07/25 12:55:35;;;;;;;1.15;0.77;;;21.10;45.30;;;;;;4985411;28;20152;-75